sensor_id;sensor_type;location;lat;lon;timestamp;temperature;humidity
18998;DHT22;9632;51.018;4.284;2023-05-10T00:00:13;15.70;99.90
18998;DHT22;9632;51.018;4.284;2023-05-10T00:02:39;15.70;99.90
18998;DHT22;9632;51.018;4.284;2023-05-10T00:05:06;15.70;99.90
18998;DHT22;9632;51.018;4.284;2023-05-10T00:07:32;15.70;99.90
18998;DHT22;9632;51.018;4.284;2023-05-10T00:09:57;15.70;99.90
18998;DHT22;9632;51.018;4.284;2023-05-10T00:12:23;15.70;99.90
18998;DHT22;9632;51.018;4.284;2023-05-10T00:14:49;15.70;99.90
18998;DHT22;9632;51.018;4.284;2023-05-10T00:17:14;15.70;99.90
18998;DHT22;9632;51.018;4.284;2023-05-10T00:19:40;15.70;99.90
18998;DHT22;9632;51.018;4.284;2023-05-10T00:22:06;15.80;99.90
18998;DHT22;9632;51.018;4.284;2023-05-10T00:24:31;15.70;99.90
18998;DHT22;9632;51.018;4.284;2023-05-10T00:26:57;15.80;99.90
18998;DHT22;9632;51.018;4.284;2023-05-10T00:29:22;15.80;99.90
18998;DHT22;9632;51.018;4.284;2023-05-10T00:31:48;15.70;99.90
18998;DHT22;9632;51.018;4.284;2023-05-10T00:34:14;15.70;99.90
18998;DHT22;9632;51.018;4.284;2023-05-10T00:36:40;15.80;99.90
18998;DHT22;9632;51.018;4.284;2023-05-10T00:39:06;15.80;99.90
18998;DHT22;9632;51.018;4.284;2023-05-10T00:41:31;15.70;99.90
18998;DHT22;9632;51.018;4.284;2023-05-10T00:43:58;15.70;99.90
18998;DHT22;9632;51.018;4.284;2023-05-10T00:46:24;15.60;99.90
18998;DHT22;9632;51.018;4.284;2023-05-10T00:48:50;15.60;99.90
18998;DHT22;9632;51.018;4.284;2023-05-10T00:51:16;15.60;99.90
18998;DHT22;9632;51.018;4.284;2023-05-10T00:53:41;15.60;99.90
18998;DHT22;9632;51.018;4.284;2023-05-10T00:56:08;15.60;99.90
18998;DHT22;9632;51.018;4.284;2023-05-10T00:58:33;15.70;99.90
18998;DHT22;9632;51.018;4.284;2023-05-10T01:01:00;15.60;99.90
18998;DHT22;9632;51.018;4.284;2023-05-10T01:03:26;15.60;99.90
18998;DHT22;9632;51.018;4.284;2023-05-10T01:05:53;15.60;99.90
18998;DHT22;9632;51.018;4.284;2023-05-10T01:08:19;15.70;99.90
18998;DHT22;9632;51.018;4.284;2023-05-10T01:10:45;15.60;99.90
18998;DHT22;9632;51.018;4.284;2023-05-10T01:13:11;15.60;99.90
18998;DHT22;9632;51.018;4.284;2023-05-10T01:15:38;15.50;99.90
18998;DHT22;9632;51.018;4.284;2023-05-10T01:18:04;15.50;99.90
18998;DHT22;9632;51.018;4.284;2023-05-10T01:20:37;15.50;99.90
18998;DHT22;9632;51.018;4.284;2023-05-10T01:29:14;15.50;99.90
18998;DHT22;9632;51.018;4.284;2023-05-10T01:35:05;15.50;99.90
18998;DHT22;9632;51.018;4.284;2023-05-10T01:37:41;15.50;99.90
18998;DHT22;9632;51.018;4.284;2023-05-10T01:40:32;15.50;99.90
18998;DHT22;9632;51.018;4.284;2023-05-10T01:43:03;15.50;99.90
18998;DHT22;9632;51.018;4.284;2023-05-10T01:45:36;15.50;99.90
18998;DHT22;9632;51.018;4.284;2023-05-10T01:48:10;15.50;99.90
18998;DHT22;9632;51.018;4.284;2023-05-10T01:50:39;15.50;99.90
18998;DHT22;9632;51.018;4.284;2023-05-10T01:53:09;15.50;99.90
18998;DHT22;9632;51.018;4.284;2023-05-10T01:55:43;15.50;99.90
18998;DHT22;9632;51.018;4.284;2023-05-10T01:58:13;15.50;99.90
18998;DHT22;9632;51.018;4.284;2023-05-10T02:00:42;15.50;99.90
18998;DHT22;9632;51.018;4.284;2023-05-10T02:03:10;15.60;99.90
18998;DHT22;9632;51.018;4.284;2023-05-10T02:05:37;15.50;99.90
18998;DHT22;9632;51.018;4.284;2023-05-10T02:08:05;15.50;99.90
18998;DHT22;9632;51.018;4.284;2023-05-10T02:10:35;15.50;99.90
18998;DHT22;9632;51.018;4.284;2023-05-10T02:13:02;15.60;99.90
18998;DHT22;9632;51.018;4.284;2023-05-10T02:15:29;15.50;99.90
18998;DHT22;9632;51.018;4.284;2023-05-10T02:17:55;15.60;99.90
18998;DHT22;9632;51.018;4.284;2023-05-10T02:20:23;15.50;99.90
18998;DHT22;9632;51.018;4.284;2023-05-10T02:22:52;15.60;99.90
18998;DHT22;9632;51.018;4.284;2023-05-10T02:25:21;15.60;99.90
18998;DHT22;9632;51.018;4.284;2023-05-10T02:27:47;15.50;99.90
18998;DHT22;9632;51.018;4.284;2023-05-10T02:30:14;15.60;99.90
18998;DHT22;9632;51.018;4.284;2023-05-10T02:32:41;15.60;99.90
18998;DHT22;9632;51.018;4.284;2023-05-10T02:35:08;15.60;99.90
18998;DHT22;9632;51.018;4.284;2023-05-10T02:37:37;15.50;99.90
18998;DHT22;9632;51.018;4.284;2023-05-10T02:40:04;15.60;99.90
18998;DHT22;9632;51.018;4.284;2023-05-10T02:42:33;15.50;99.90
18998;DHT22;9632;51.018;4.284;2023-05-10T02:45:01;15.50;99.90
18998;DHT22;9632;51.018;4.284;2023-05-10T02:47:29;15.60;99.90
18998;DHT22;9632;51.018;4.284;2023-05-10T02:49:55;15.60;99.90
18998;DHT22;9632;51.018;4.284;2023-05-10T02:52:28;15.50;99.90
18998;DHT22;9632;51.018;4.284;2023-05-10T02:54:58;15.50;99.90
18998;DHT22;9632;51.018;4.284;2023-05-10T02:57:32;15.50;99.90
18998;DHT22;9632;51.018;4.284;2023-05-10T02:59:59;15.50;99.90
18998;DHT22;9632;51.018;4.284;2023-05-10T03:02:25;15.50;99.90
18998;DHT22;9632;51.018;4.284;2023-05-10T03:04:51;15.50;99.90
18998;DHT22;9632;51.018;4.284;2023-05-10T03:07:17;15.40;99.90
18998;DHT22;9632;51.018;4.284;2023-05-10T03:09:44;15.40;99.90
18998;DHT22;9632;51.018;4.284;2023-05-10T03:12:33;15.40;99.90
18998;DHT22;9632;51.018;4.284;2023-05-10T03:15:25;15.30;99.90
18998;DHT22;9632;51.018;4.284;2023-05-10T03:18:07;15.30;99.90
18998;DHT22;9632;51.018;4.284;2023-05-10T03:20:48;15.30;99.90
18998;DHT22;9632;51.018;4.284;2023-05-10T03:23:29;15.30;99.90
18998;DHT22;9632;51.018;4.284;2023-05-10T03:25:56;15.20;99.90
18998;DHT22;9632;51.018;4.284;2023-05-10T03:28:25;15.20;99.90
18998;DHT22;9632;51.018;4.284;2023-05-10T03:30:56;15.10;99.90
18998;DHT22;9632;51.018;4.284;2023-05-10T03:33:22;15.10;99.90
18998;DHT22;9632;51.018;4.284;2023-05-10T03:35:48;15.10;99.90
18998;DHT22;9632;51.018;4.284;2023-05-10T03:38:13;15.00;99.90
18998;DHT22;9632;51.018;4.284;2023-05-10T03:40:39;15.00;99.90
18998;DHT22;9632;51.018;4.284;2023-05-10T03:43:05;15.00;99.90
18998;DHT22;9632;51.018;4.284;2023-05-10T03:45:31;15.00;99.90
18998;DHT22;9632;51.018;4.284;2023-05-10T03:47:57;15.00;99.90
18998;DHT22;9632;51.018;4.284;2023-05-10T03:50:23;15.00;99.90
18998;DHT22;9632;51.018;4.284;2023-05-10T03:52:49;15.00;99.90
18998;DHT22;9632;51.018;4.284;2023-05-10T03:55:15;15.00;99.90
18998;DHT22;9632;51.018;4.284;2023-05-10T03:57:41;15.00;99.90
18998;DHT22;9632;51.018;4.284;2023-05-10T04:00:07;15.00;99.90
18998;DHT22;9632;51.018;4.284;2023-05-10T04:02:33;15.00;99.90
18998;DHT22;9632;51.018;4.284;2023-05-10T04:04:59;15.00;99.90
18998;DHT22;9632;51.018;4.284;2023-05-10T04:07:24;15.00;99.90
18998;DHT22;9632;51.018;4.284;2023-05-10T04:09:50;15.00;99.90
18998;DHT22;9632;51.018;4.284;2023-05-10T04:12:16;15.00;99.90
18998;DHT22;9632;51.018;4.284;2023-05-10T04:14:42;15.00;99.90
18998;DHT22;9632;51.018;4.284;2023-05-10T04:17:07;15.00;99.90
18998;DHT22;9632;51.018;4.284;2023-05-10T04:19:33;15.00;99.90
18998;DHT22;9632;51.018;4.284;2023-05-10T04:21:59;15.10;99.90
18998;DHT22;9632;51.018;4.284;2023-05-10T04:24:25;15.00;99.90
18998;DHT22;9632;51.018;4.284;2023-05-10T04:26:51;15.10;99.90
18998;DHT22;9632;51.018;4.284;2023-05-10T04:29:17;15.10;99.90
18998;DHT22;9632;51.018;4.284;2023-05-10T04:31:43;15.10;99.90
18998;DHT22;9632;51.018;4.284;2023-05-10T04:34:08;15.10;99.90
18998;DHT22;9632;51.018;4.284;2023-05-10T04:36:34;15.10;99.90
18998;DHT22;9632;51.018;4.284;2023-05-10T04:39:02;15.20;99.90
18998;DHT22;9632;51.018;4.284;2023-05-10T04:41:28;15.20;99.90
18998;DHT22;9632;51.018;4.284;2023-05-10T04:43:54;15.10;99.90
18998;DHT22;9632;51.018;4.284;2023-05-10T04:46:20;15.10;99.90
18998;DHT22;9632;51.018;4.284;2023-05-10T04:48:45;15.20;99.90
18998;DHT22;9632;51.018;4.284;2023-05-10T04:51:11;15.20;99.90
18998;DHT22;9632;51.018;4.284;2023-05-10T04:53:37;15.20;99.90
18998;DHT22;9632;51.018;4.284;2023-05-10T04:56:03;15.30;99.90
18998;DHT22;9632;51.018;4.284;2023-05-10T04:58:29;15.30;99.90
18998;DHT22;9632;51.018;4.284;2023-05-10T05:00:55;15.30;99.90
18998;DHT22;9632;51.018;4.284;2023-05-10T05:03:20;15.30;99.90
18998;DHT22;9632;51.018;4.284;2023-05-10T05:05:46;15.30;99.90
18998;DHT22;9632;51.018;4.284;2023-05-10T05:08:11;15.30;99.90
18998;DHT22;9632;51.018;4.284;2023-05-10T05:10:38;15.30;99.90
18998;DHT22;9632;51.018;4.284;2023-05-10T05:13:03;15.30;99.90
18998;DHT22;9632;51.018;4.284;2023-05-10T05:15:29;15.40;99.90
18998;DHT22;9632;51.018;4.284;2023-05-10T05:17:55;15.40;99.90
18998;DHT22;9632;51.018;4.284;2023-05-10T05:20:21;15.50;99.90
18998;DHT22;9632;51.018;4.284;2023-05-10T05:22:47;15.50;99.90
18998;DHT22;9632;51.018;4.284;2023-05-10T05:25:13;15.50;99.90
18998;DHT22;9632;51.018;4.284;2023-05-10T05:27:39;15.50;99.90
18998;DHT22;9632;51.018;4.284;2023-05-10T05:30:05;15.60;99.90
18998;DHT22;9632;51.018;4.284;2023-05-10T05:32:31;15.60;99.90
18998;DHT22;9632;51.018;4.284;2023-05-10T05:34:57;15.60;99.90
18998;DHT22;9632;51.018;4.284;2023-05-10T05:37:23;15.70;99.90
18998;DHT22;9632;51.018;4.284;2023-05-10T05:39:50;15.70;99.90
18998;DHT22;9632;51.018;4.284;2023-05-10T05:42:15;15.70;99.90
18998;DHT22;9632;51.018;4.284;2023-05-10T05:44:43;15.70;99.90
18998;DHT22;9632;51.018;4.284;2023-05-10T05:47:09;15.80;99.90
18998;DHT22;9632;51.018;4.284;2023-05-10T05:49:34;15.80;99.90
18998;DHT22;9632;51.018;4.284;2023-05-10T05:52:01;15.80;99.90
18998;DHT22;9632;51.018;4.284;2023-05-10T05:54:27;15.90;99.90
18998;DHT22;9632;51.018;4.284;2023-05-10T05:56:59;15.90;99.90
18998;DHT22;9632;51.018;4.284;2023-05-10T05:59:26;16.00;99.90
18998;DHT22;9632;51.018;4.284;2023-05-10T06:01:52;16.10;99.90
18998;DHT22;9632;51.018;4.284;2023-05-10T06:04:18;16.10;99.90
18998;DHT22;9632;51.018;4.284;2023-05-10T06:06:44;16.10;99.90
18998;DHT22;9632;51.018;4.284;2023-05-10T06:09:10;16.20;99.90
18998;DHT22;9632;51.018;4.284;2023-05-10T06:11:36;16.30;99.90
18998;DHT22;9632;51.018;4.284;2023-05-10T06:14:02;16.30;99.90
18998;DHT22;9632;51.018;4.284;2023-05-10T06:16:32;16.30;99.90
18998;DHT22;9632;51.018;4.284;2023-05-10T06:18:58;16.30;99.90
18998;DHT22;9632;51.018;4.284;2023-05-10T06:21:23;16.30;99.90
18998;DHT22;9632;51.018;4.284;2023-05-10T06:23:49;16.40;99.90
18998;DHT22;9632;51.018;4.284;2023-05-10T06:26:15;16.40;99.90
18998;DHT22;9632;51.018;4.284;2023-05-10T06:28:41;16.40;99.90
18998;DHT22;9632;51.018;4.284;2023-05-10T06:31:06;16.40;99.90
18998;DHT22;9632;51.018;4.284;2023-05-10T06:33:32;16.50;99.90
18998;DHT22;9632;51.018;4.284;2023-05-10T06:35:58;16.50;99.90
18998;DHT22;9632;51.018;4.284;2023-05-10T06:38:24;16.50;99.90
18998;DHT22;9632;51.018;4.284;2023-05-10T06:40:50;16.40;99.90
18998;DHT22;9632;51.018;4.284;2023-05-10T06:43:16;16.50;99.90
18998;DHT22;9632;51.018;4.284;2023-05-10T06:45:41;16.50;99.90
18998;DHT22;9632;51.018;4.284;2023-05-10T06:48:07;16.40;99.90
18998;DHT22;9632;51.018;4.284;2023-05-10T06:50:33;16.40;99.90
18998;DHT22;9632;51.018;4.284;2023-05-10T06:52:59;16.40;99.90
18998;DHT22;9632;51.018;4.284;2023-05-10T06:55:25;16.40;99.90
18998;DHT22;9632;51.018;4.284;2023-05-10T06:57:51;16.40;99.90
18998;DHT22;9632;51.018;4.284;2023-05-10T07:00:18;16.40;99.90
18998;DHT22;9632;51.018;4.284;2023-05-10T07:02:43;16.30;99.90
18998;DHT22;9632;51.018;4.284;2023-05-10T07:05:09;16.30;99.90
18998;DHT22;9632;51.018;4.284;2023-05-10T07:07:35;16.30;99.90
18998;DHT22;9632;51.018;4.284;2023-05-10T07:10:01;16.30;99.90
18998;DHT22;9632;51.018;4.284;2023-05-10T07:12:27;16.20;99.90
18998;DHT22;9632;51.018;4.284;2023-05-10T07:14:53;16.30;99.90
18998;DHT22;9632;51.018;4.284;2023-05-10T07:17:19;16.30;99.90
18998;DHT22;9632;51.018;4.284;2023-05-10T07:19:44;16.30;99.90
18998;DHT22;9632;51.018;4.284;2023-05-10T07:22:10;16.40;99.90
18998;DHT22;9632;51.018;4.284;2023-05-10T07:24:36;16.40;99.90
18998;DHT22;9632;51.018;4.284;2023-05-10T07:27:01;16.40;99.90
18998;DHT22;9632;51.018;4.284;2023-05-10T07:29:27;16.40;99.90
18998;DHT22;9632;51.018;4.284;2023-05-10T07:31:53;16.40;99.90
18998;DHT22;9632;51.018;4.284;2023-05-10T07:34:19;16.50;99.90
18998;DHT22;9632;51.018;4.284;2023-05-10T07:36:45;16.50;99.90
18998;DHT22;9632;51.018;4.284;2023-05-10T07:39:11;16.50;99.90
18998;DHT22;9632;51.018;4.284;2023-05-10T07:41:36;16.50;99.90
18998;DHT22;9632;51.018;4.284;2023-05-10T07:44:03;16.50;99.90
18998;DHT22;9632;51.018;4.284;2023-05-10T07:46:29;16.50;99.90
18998;DHT22;9632;51.018;4.284;2023-05-10T07:48:55;16.60;99.90
18998;DHT22;9632;51.018;4.284;2023-05-10T07:51:21;16.60;99.90
18998;DHT22;9632;51.018;4.284;2023-05-10T07:53:46;16.70;99.90
18998;DHT22;9632;51.018;4.284;2023-05-10T07:56:26;16.70;99.90
18998;DHT22;9632;51.018;4.284;2023-05-10T07:58:55;16.70;99.90
18998;DHT22;9632;51.018;4.284;2023-05-10T08:01:21;16.70;99.90
18998;DHT22;9632;51.018;4.284;2023-05-10T08:03:47;16.70;99.90
18998;DHT22;9632;51.018;4.284;2023-05-10T08:06:14;16.70;99.90
18998;DHT22;9632;51.018;4.284;2023-05-10T08:08:41;16.70;99.90
18998;DHT22;9632;51.018;4.284;2023-05-10T08:11:07;16.70;99.90
18998;DHT22;9632;51.018;4.284;2023-05-10T08:13:33;16.70;99.90
18998;DHT22;9632;51.018;4.284;2023-05-10T08:15:59;16.70;99.90
18998;DHT22;9632;51.018;4.284;2023-05-10T08:18:25;16.70;99.90
18998;DHT22;9632;51.018;4.284;2023-05-10T08:20:50;16.70;99.90
18998;DHT22;9632;51.018;4.284;2023-05-10T08:23:16;16.60;99.90
18998;DHT22;9632;51.018;4.284;2023-05-10T08:25:41;16.60;99.90
18998;DHT22;9632;51.018;4.284;2023-05-10T08:28:07;16.60;99.90
18998;DHT22;9632;51.018;4.284;2023-05-10T08:30:33;16.60;99.90
18998;DHT22;9632;51.018;4.284;2023-05-10T08:32:58;16.60;99.90
18998;DHT22;9632;51.018;4.284;2023-05-10T08:35:24;16.70;99.90
18998;DHT22;9632;51.018;4.284;2023-05-10T08:37:51;16.70;99.90
18998;DHT22;9632;51.018;4.284;2023-05-10T08:40:19;16.60;99.90
18998;DHT22;9632;51.018;4.284;2023-05-10T08:42:53;16.60;99.90
18998;DHT22;9632;51.018;4.284;2023-05-10T08:45:23;16.50;99.90
18998;DHT22;9632;51.018;4.284;2023-05-10T08:47:50;16.60;99.90
18998;DHT22;9632;51.018;4.284;2023-05-10T08:50:18;16.60;99.90
18998;DHT22;9632;51.018;4.284;2023-05-10T08:52:46;16.50;99.90
18998;DHT22;9632;51.018;4.284;2023-05-10T08:55:13;16.50;99.90
18998;DHT22;9632;51.018;4.284;2023-05-10T08:57:40;16.50;99.90
18998;DHT22;9632;51.018;4.284;2023-05-10T09:00:06;16.30;99.90
18998;DHT22;9632;51.018;4.284;2023-05-10T09:02:34;16.10;99.90
18998;DHT22;9632;51.018;4.284;2023-05-10T09:05:00;16.20;99.90
18998;DHT22;9632;51.018;4.284;2023-05-10T09:07:26;16.20;99.90
18998;DHT22;9632;51.018;4.284;2023-05-10T09:09:53;16.10;99.90
18998;DHT22;9632;51.018;4.284;2023-05-10T09:12:19;16.20;99.90
18998;DHT22;9632;51.018;4.284;2023-05-10T09:14:45;16.10;99.90
18998;DHT22;9632;51.018;4.284;2023-05-10T09:17:11;16.10;99.90
18998;DHT22;9632;51.018;4.284;2023-05-10T09:19:37;16.10;99.90
18998;DHT22;9632;51.018;4.284;2023-05-10T09:22:03;16.10;99.90
18998;DHT22;9632;51.018;4.284;2023-05-10T09:24:30;16.10;99.90
18998;DHT22;9632;51.018;4.284;2023-05-10T09:26:57;16.00;99.90
18998;DHT22;9632;51.018;4.284;2023-05-10T09:29:23;16.00;99.90
18998;DHT22;9632;51.018;4.284;2023-05-10T09:31:52;16.00;99.90
18998;DHT22;9632;51.018;4.284;2023-05-10T09:34:29;16.00;99.90
18998;DHT22;9632;51.018;4.284;2023-05-10T09:37:00;16.00;99.90
18998;DHT22;9632;51.018;4.284;2023-05-10T09:39:36;16.00;99.90
18998;DHT22;9632;51.018;4.284;2023-05-10T09:42:07;15.80;99.90
18998;DHT22;9632;51.018;4.284;2023-05-10T09:44:34;15.80;99.90
18998;DHT22;9632;51.018;4.284;2023-05-10T09:47:01;15.80;99.90
18998;DHT22;9632;51.018;4.284;2023-05-10T09:49:28;15.90;99.90
18998;DHT22;9632;51.018;4.284;2023-05-10T09:52:04;15.90;99.90
18998;DHT22;9632;51.018;4.284;2023-05-10T09:54:30;16.00;99.90
18998;DHT22;9632;51.018;4.284;2023-05-10T09:56:56;16.00;99.90
18998;DHT22;9632;51.018;4.284;2023-05-10T09:59:25;16.10;99.90
18998;DHT22;9632;51.018;4.284;2023-05-10T10:01:52;16.10;99.90
18998;DHT22;9632;51.018;4.284;2023-05-10T10:04:20;16.10;99.90
18998;DHT22;9632;51.018;4.284;2023-05-10T10:06:59;16.20;99.90
18998;DHT22;9632;51.018;4.284;2023-05-10T10:09:26;16.20;99.90
18998;DHT22;9632;51.018;4.284;2023-05-10T10:11:52;16.20;99.90
18998;DHT22;9632;51.018;4.284;2023-05-10T10:14:19;16.30;99.90
18998;DHT22;9632;51.018;4.284;2023-05-10T10:16:47;16.30;99.90
18998;DHT22;9632;51.018;4.284;2023-05-10T10:19:15;16.40;99.90
18998;DHT22;9632;51.018;4.284;2023-05-10T10:21:42;16.40;99.90
18998;DHT22;9632;51.018;4.284;2023-05-10T10:24:07;16.40;99.90
18998;DHT22;9632;51.018;4.284;2023-05-10T10:26:34;16.40;99.90
18998;DHT22;9632;51.018;4.284;2023-05-10T10:31:47;16.50;99.90
18998;DHT22;9632;51.018;4.284;2023-05-10T10:34:29;16.50;99.90
18998;DHT22;9632;51.018;4.284;2023-05-10T10:36:56;16.50;99.90
18998;DHT22;9632;51.018;4.284;2023-05-10T10:39:23;16.50;99.90
18998;DHT22;9632;51.018;4.284;2023-05-10T10:41:52;16.50;99.90
18998;DHT22;9632;51.018;4.284;2023-05-10T10:49:50;16.80;99.90
18998;DHT22;9632;51.018;4.284;2023-05-10T10:52:36;16.80;99.90
18998;DHT22;9632;51.018;4.284;2023-05-10T10:55:06;16.90;99.90
18998;DHT22;9632;51.018;4.284;2023-05-10T10:57:47;16.80;99.90
18998;DHT22;9632;51.018;4.284;2023-05-10T11:03:11;16.80;99.90
18998;DHT22;9632;51.018;4.284;2023-05-10T11:05:47;16.90;99.90
18998;DHT22;9632;51.018;4.284;2023-05-10T11:08:32;17.00;99.90
18998;DHT22;9632;51.018;4.284;2023-05-10T11:11:02;17.00;99.90
18998;DHT22;9632;51.018;4.284;2023-05-10T11:13:33;17.10;99.90
18998;DHT22;9632;51.018;4.284;2023-05-10T11:16:19;17.10;99.90
18998;DHT22;9632;51.018;4.284;2023-05-10T11:18:56;17.10;99.90
18998;DHT22;9632;51.018;4.284;2023-05-10T11:21:23;17.20;99.90
18998;DHT22;9632;51.018;4.284;2023-05-10T11:23:52;17.20;99.90
18998;DHT22;9632;51.018;4.284;2023-05-10T11:26:25;17.20;99.90
18998;DHT22;9632;51.018;4.284;2023-05-10T11:28:53;17.20;99.90
18998;DHT22;9632;51.018;4.284;2023-05-10T11:31:21;17.20;99.90
18998;DHT22;9632;51.018;4.284;2023-05-10T11:33:48;17.20;99.90
18998;DHT22;9632;51.018;4.284;2023-05-10T11:36:16;17.30;99.90
18998;DHT22;9632;51.018;4.284;2023-05-10T11:38:42;17.30;99.90
18998;DHT22;9632;51.018;4.284;2023-05-10T11:41:11;17.30;99.90
18998;DHT22;9632;51.018;4.284;2023-05-10T11:43:40;17.40;99.90
18998;DHT22;9632;51.018;4.284;2023-05-10T11:46:11;17.40;99.90
18998;DHT22;9632;51.018;4.284;2023-05-10T11:48:39;17.40;99.90
18998;DHT22;9632;51.018;4.284;2023-05-10T11:51:06;17.40;99.90
18998;DHT22;9632;51.018;4.284;2023-05-10T11:53:32;17.50;99.90
18998;DHT22;9632;51.018;4.284;2023-05-10T11:56:08;17.40;99.90
18998;DHT22;9632;51.018;4.284;2023-05-10T11:58:36;17.50;99.90
18998;DHT22;9632;51.018;4.284;2023-05-10T12:01:02;17.50;99.90
18998;DHT22;9632;51.018;4.284;2023-05-10T12:03:29;17.60;99.90
18998;DHT22;9632;51.018;4.284;2023-05-10T12:05:55;17.50;99.90
18998;DHT22;9632;51.018;4.284;2023-05-10T12:08:23;17.50;99.90
18998;DHT22;9632;51.018;4.284;2023-05-10T12:10:49;17.60;99.90
18998;DHT22;9632;51.018;4.284;2023-05-10T12:13:15;17.50;99.90
18998;DHT22;9632;51.018;4.284;2023-05-10T12:15:41;17.50;99.90
18998;DHT22;9632;51.018;4.284;2023-05-10T12:18:12;17.60;99.90
18998;DHT22;9632;51.018;4.284;2023-05-10T12:20:38;17.60;99.90
18998;DHT22;9632;51.018;4.284;2023-05-10T12:23:04;17.60;99.90
18998;DHT22;9632;51.018;4.284;2023-05-10T12:25:35;17.60;99.90
18998;DHT22;9632;51.018;4.284;2023-05-10T12:28:03;17.60;99.90
18998;DHT22;9632;51.018;4.284;2023-05-10T12:30:32;17.60;99.90
18998;DHT22;9632;51.018;4.284;2023-05-10T12:33:11;17.70;99.90
18998;DHT22;9632;51.018;4.284;2023-05-10T12:35:48;17.70;99.90
18998;DHT22;9632;51.018;4.284;2023-05-10T12:38:40;17.70;99.90
18998;DHT22;9632;51.018;4.284;2023-05-10T12:41:13;17.60;99.90
18998;DHT22;9632;51.018;4.284;2023-05-10T12:43:39;17.50;99.90
18998;DHT22;9632;51.018;4.284;2023-05-10T12:46:10;17.50;99.90
18998;DHT22;9632;51.018;4.284;2023-05-10T12:48:37;17.50;99.90
18998;DHT22;9632;51.018;4.284;2023-05-10T12:51:03;17.60;99.90
18998;DHT22;9632;51.018;4.284;2023-05-10T12:53:30;17.50;99.90
18998;DHT22;9632;51.018;4.284;2023-05-10T12:55:56;17.50;99.90
18998;DHT22;9632;51.018;4.284;2023-05-10T12:58:22;17.50;99.90
18998;DHT22;9632;51.018;4.284;2023-05-10T13:00:48;17.50;99.90
18998;DHT22;9632;51.018;4.284;2023-05-10T13:03:13;17.50;99.90
18998;DHT22;9632;51.018;4.284;2023-05-10T13:05:40;17.50;99.90
18998;DHT22;9632;51.018;4.284;2023-05-10T13:08:06;17.50;99.90
18998;DHT22;9632;51.018;4.284;2023-05-10T13:10:32;17.50;99.90
18998;DHT22;9632;51.018;4.284;2023-05-10T13:12:58;17.50;99.90
18998;DHT22;9632;51.018;4.284;2023-05-10T13:15:25;17.50;99.90
18998;DHT22;9632;51.018;4.284;2023-05-10T13:17:50;17.50;99.90
18998;DHT22;9632;51.018;4.284;2023-05-10T13:20:16;17.50;99.90
18998;DHT22;9632;51.018;4.284;2023-05-10T13:22:45;17.50;99.90
18998;DHT22;9632;51.018;4.284;2023-05-10T13:25:11;17.50;99.90
18998;DHT22;9632;51.018;4.284;2023-05-10T13:27:38;17.60;99.90
18998;DHT22;9632;51.018;4.284;2023-05-10T13:30:05;17.50;99.90
18998;DHT22;9632;51.018;4.284;2023-05-10T13:32:30;17.50;99.90
18998;DHT22;9632;51.018;4.284;2023-05-10T13:34:56;17.50;99.90
18998;DHT22;9632;51.018;4.284;2023-05-10T13:37:22;17.50;99.90
18998;DHT22;9632;51.018;4.284;2023-05-10T13:39:48;17.50;99.90
18998;DHT22;9632;51.018;4.284;2023-05-10T13:42:13;17.60;99.90
18998;DHT22;9632;51.018;4.284;2023-05-10T13:44:39;17.60;99.90
18998;DHT22;9632;51.018;4.284;2023-05-10T13:47:05;17.60;99.90
18998;DHT22;9632;51.018;4.284;2023-05-10T13:49:31;17.60;99.90
18998;DHT22;9632;51.018;4.284;2023-05-10T13:51:57;17.60;99.90
18998;DHT22;9632;51.018;4.284;2023-05-10T13:54:23;17.60;99.90
18998;DHT22;9632;51.018;4.284;2023-05-10T13:56:49;17.60;99.90
18998;DHT22;9632;51.018;4.284;2023-05-10T13:59:15;17.60;99.90
18998;DHT22;9632;51.018;4.284;2023-05-10T14:01:41;17.60;99.90
18998;DHT22;9632;51.018;4.284;2023-05-10T14:04:06;17.60;99.90
18998;DHT22;9632;51.018;4.284;2023-05-10T14:06:35;17.60;99.90
18998;DHT22;9632;51.018;4.284;2023-05-10T14:09:02;17.60;99.90
18998;DHT22;9632;51.018;4.284;2023-05-10T14:11:28;17.70;99.90
18998;DHT22;9632;51.018;4.284;2023-05-10T14:13:53;17.70;99.90
18998;DHT22;9632;51.018;4.284;2023-05-10T14:16:19;17.80;99.90
18998;DHT22;9632;51.018;4.284;2023-05-10T14:18:45;17.80;99.90
18998;DHT22;9632;51.018;4.284;2023-05-10T14:21:11;17.80;99.90
18998;DHT22;9632;51.018;4.284;2023-05-10T14:23:37;17.80;99.90
18998;DHT22;9632;51.018;4.284;2023-05-10T14:26:03;17.80;99.90
18998;DHT22;9632;51.018;4.284;2023-05-10T14:28:29;17.80;99.90
18998;DHT22;9632;51.018;4.284;2023-05-10T14:30:54;17.80;99.90
18998;DHT22;9632;51.018;4.284;2023-05-10T14:33:20;17.70;99.90
18998;DHT22;9632;51.018;4.284;2023-05-10T14:35:47;17.70;99.90
18998;DHT22;9632;51.018;4.284;2023-05-10T14:38:13;17.70;99.90
18998;DHT22;9632;51.018;4.284;2023-05-10T14:40:39;17.70;99.90
18998;DHT22;9632;51.018;4.284;2023-05-10T14:43:05;17.70;99.90
18998;DHT22;9632;51.018;4.284;2023-05-10T14:45:31;17.60;99.90
18998;DHT22;9632;51.018;4.284;2023-05-10T14:47:57;17.60;99.90
18998;DHT22;9632;51.018;4.284;2023-05-10T14:50:23;17.50;99.90
18998;DHT22;9632;51.018;4.284;2023-05-10T14:52:49;17.50;99.90
18998;DHT22;9632;51.018;4.284;2023-05-10T14:55:15;17.50;99.90
18998;DHT22;9632;51.018;4.284;2023-05-10T14:57:41;17.50;99.90
18998;DHT22;9632;51.018;4.284;2023-05-10T15:00:07;17.40;99.90
18998;DHT22;9632;51.018;4.284;2023-05-10T15:02:33;17.50;99.90
18998;DHT22;9632;51.018;4.284;2023-05-10T15:04:59;17.40;99.90
18998;DHT22;9632;51.018;4.284;2023-05-10T15:07:24;17.30;99.90
18998;DHT22;9632;51.018;4.284;2023-05-10T15:09:51;17.30;99.90
18998;DHT22;9632;51.018;4.284;2023-05-10T15:12:19;17.30;99.90
18998;DHT22;9632;51.018;4.284;2023-05-10T15:14:45;17.30;99.90
18998;DHT22;9632;51.018;4.284;2023-05-10T15:17:11;17.30;99.90
18998;DHT22;9632;51.018;4.284;2023-05-10T15:19:37;17.20;99.90
18998;DHT22;9632;51.018;4.284;2023-05-10T15:22:04;17.20;99.90
18998;DHT22;9632;51.018;4.284;2023-05-10T15:24:30;17.10;99.90
18998;DHT22;9632;51.018;4.284;2023-05-10T15:26:56;17.20;99.90
18998;DHT22;9632;51.018;4.284;2023-05-10T15:29:22;17.20;99.90
18998;DHT22;9632;51.018;4.284;2023-05-10T15:31:49;17.20;99.90
18998;DHT22;9632;51.018;4.284;2023-05-10T15:34:15;17.10;99.90
18998;DHT22;9632;51.018;4.284;2023-05-10T15:36:41;17.10;99.90
18998;DHT22;9632;51.018;4.284;2023-05-10T15:39:07;17.10;99.90
18998;DHT22;9632;51.018;4.284;2023-05-10T15:41:34;17.10;99.90
18998;DHT22;9632;51.018;4.284;2023-05-10T15:44:00;17.00;99.90
18998;DHT22;9632;51.018;4.284;2023-05-10T15:46:27;17.00;99.90
18998;DHT22;9632;51.018;4.284;2023-05-10T15:48:53;17.00;99.90
18998;DHT22;9632;51.018;4.284;2023-05-10T15:51:19;17.00;99.90
18998;DHT22;9632;51.018;4.284;2023-05-10T15:53:45;16.90;99.90
18998;DHT22;9632;51.018;4.284;2023-05-10T15:56:11;16.90;99.90
18998;DHT22;9632;51.018;4.284;2023-05-10T15:58:40;16.90;99.90
18998;DHT22;9632;51.018;4.284;2023-05-10T16:01:06;16.90;99.90
18998;DHT22;9632;51.018;4.284;2023-05-10T16:03:33;16.80;99.90
18998;DHT22;9632;51.018;4.284;2023-05-10T16:05:59;16.90;99.90